createdAt,value
2023-04-10T00:01:02.222Z,101694.31
2023-04-10T00:03:31.494Z,101697.72
2023-04-10T00:06:00.464Z,101701.09
2023-04-10T00:08:29.002Z,101584.34
2023-04-10T00:10:57.416Z,101631.19
2023-04-10T00:13:26.189Z,101698.38
2023-04-10T00:15:56.056Z,101692.16
2023-04-10T00:18:24.487Z,101698.09
2023-04-10T00:20:52.897Z,101704.09
2023-04-10T00:23:21.658Z,101704.78
2023-04-10T00:25:50.406Z,101694.03
2023-04-10T00:28:19.150Z,101692.09
2023-04-10T00:30:47.619Z,101691.03
2023-04-10T00:33:17.547Z,101689.09
2023-04-10T00:35:46.268Z,101683.81
2023-04-10T00:38:15.135Z,101689.06
2023-04-10T00:40:43.910Z,101682.16
2023-04-10T00:43:12.801Z,101678.66
2023-04-10T00:45:42.137Z,101669.84
2023-04-10T00:48:10.819Z,101642.03
2023-04-10T00:50:40.933Z,101681.94
2023-04-10T00:53:09.665Z,101685.50
2023-04-10T00:55:38.500Z,101658.22
2023-04-10T00:58:07.545Z,101674.16
2023-04-10T01:00:36.013Z,101672.38
2023-04-10T01:03:05.538Z,101674.88
2023-04-10T01:05:43.223Z,101641.97
2023-04-10T01:08:27.851Z,101680.97
2023-04-10T01:11:11.107Z,101679.25
2023-04-10T01:13:51.958Z,101679.22
2023-04-10T01:16:29.557Z,101554.38
2023-04-10T01:19:12.807Z,101648.19
2023-04-10T01:21:43.791Z,101685.44
2023-04-10T01:24:35.514Z,101677.56
2023-04-10T01:27:22.104Z,101637.13
2023-04-10T01:29:58.617Z,101638.28
2023-04-10T01:32:34.958Z,101686.31
2023-04-10T01:35:08.667Z,101667.25
2023-04-10T01:37:43.770Z,101676.38
2023-04-10T01:40:17.560Z,101687.03
2023-04-10T01:42:54.112Z,101674.78
2023-04-10T01:45:29.937Z,101683.66
2023-04-10T01:47:59.410Z,101673.94
2023-04-10T01:50:31.263Z,101649.88
2023-04-10T01:53:03.762Z,101646.59
2023-04-10T01:55:34.604Z,101650.84
2023-04-10T01:58:07.208Z,101669.22
2023-04-10T02:00:42.972Z,101678.66
2023-04-10T02:03:13.014Z,101674.31
2023-04-10T02:05:58.084Z,101673.56
2023-04-10T02:08:34.620Z,101677.16
2023-04-10T02:11:19.581Z,101626.91
2023-04-10T02:13:52.278Z,101666.84
2023-04-10T02:16:24.790Z,101664.56
2023-04-10T02:18:54.094Z,101595.91
2023-04-10T02:21:23.111Z,101660.94
2023-04-10T02:23:52.226Z,101661.31
2023-04-10T02:26:21.136Z,101661.53
2023-04-10T02:28:49.842Z,101660.84
2023-04-10T02:31:18.904Z,101664.56
2023-04-10T02:33:48.837Z,101654.38
2023-04-10T02:36:17.308Z,101651.16
2023-04-10T02:38:46.036Z,101647.94
2023-04-10T02:41:15.727Z,101656.84
2023-04-10T02:43:44.362Z,101462.81
2023-04-10T02:46:13.164Z,101647.66
2023-04-10T02:48:42.026Z,101565.59
2023-04-10T02:51:11.837Z,101648.84
2023-04-10T02:53:40.425Z,101638.34
2023-04-10T02:56:11.777Z,101608.28
2023-04-10T02:58:45.453Z,101653.44
2023-04-10T03:01:16.202Z,101642.03
2023-04-10T03:03:46.650Z,101649.00
2023-04-10T03:06:26.217Z,101653.47
2023-04-10T03:08:56.277Z,101646.63
2023-04-10T03:11:24.734Z,101610.53
2023-04-10T03:13:53.239Z,101612.41
2023-04-10T03:16:21.902Z,101644.25
2023-04-10T03:18:50.803Z,101637.22
2023-04-10T03:21:19.296Z,101639.03
2023-04-10T03:23:49.138Z,101632.94
2023-04-10T03:26:17.824Z,101639.16
2023-04-10T03:28:46.567Z,101633.22
2023-04-10T03:31:15.513Z,101637.81
2023-04-10T03:33:46.354Z,101637.94
2023-04-10T03:36:15.175Z,101640.59
2023-04-10T03:38:43.930Z,101578.84
2023-04-10T03:41:13.763Z,101645.09
2023-04-10T03:43:42.544Z,101655.78
2023-04-10T03:46:11.116Z,101647.06
2023-04-10T03:48:43.633Z,101654.97
2023-04-10T03:51:12.404Z,101623.16
2023-04-10T03:53:40.840Z,101656.81
2023-04-10T03:56:15.897Z,101655.09
2023-04-10T03:58:45.234Z,101656.03
2023-04-10T04:01:15.754Z,101649.03
2023-04-10T04:04:07.139Z,101643.69
2023-04-10T04:07:08.932Z,101651.69
2023-04-10T04:09:56.533Z,101663.19
2023-04-10T04:12:53.035Z,101659.72
2023-04-10T04:15:38.296Z,101657.16
2023-04-10T04:18:18.701Z,101665.09
2023-04-10T04:20:51.204Z,101666.91
2023-04-10T04:23:36.675Z,101664.28
2023-04-10T04:26:27.314Z,101669.56
2023-04-10T04:29:26.396Z,101671.31
2023-04-10T04:32:07.660Z,101670.41
2023-04-10T04:34:42.211Z,101669.59
2023-04-10T04:37:37.396Z,101662.53
2023-04-10T04:40:26.045Z,101666.72
2023-04-10T04:43:06.490Z,101674.44
2023-04-10T04:45:54.865Z,101676.06
2023-04-10T04:48:40.738Z,101683.94
2023-04-10T04:51:28.050Z,101688.28
2023-04-10T04:54:25.775Z,101686.47
2023-04-10T04:57:14.194Z,101665.28
2023-04-10T05:00:07.651Z,101695.34
2023-04-10T05:03:10.086Z,101694.47
2023-04-10T05:05:59.340Z,101694.38
2023-04-10T05:08:54.087Z,101692.50
2023-04-10T05:11:25.642Z,101687.22
2023-04-10T05:14:12.704Z,101689.03
2023-04-10T05:17:02.939Z,101695.25
2023-04-10T05:20:07.152Z,101664.28
2023-04-10T05:23:01.538Z,101695.13
2023-04-10T05:25:52.885Z,101695.94
2023-04-10T05:28:41.565Z,101691.50
2023-04-10T05:31:25.703Z,101689.72
2023-04-10T05:34:12.810Z,101687.13
2023-04-10T05:37:01.046Z,101689.88
2023-04-10T05:40:06.137Z,101605.19
2023-04-10T05:42:52.714Z,101696.25
2023-04-10T05:45:30.142Z,101689.25
2023-04-10T05:48:17.277Z,101708.72
2023-04-10T05:51:11.637Z,101700.03
2023-04-10T05:53:59.270Z,101703.66
2023-04-10T05:56:41.503Z,101706.47
2023-04-10T05:59:29.982Z,101701.34
2023-04-10T06:02:24.705Z,101699.75
2023-04-10T06:04:53.865Z,101705.06
2023-04-10T06:07:22.577Z,101673.31
2023-04-10T06:09:52.334Z,101701.72
2023-04-10T06:12:20.833Z,101704.50
2023-04-10T06:14:49.777Z,101708.13
2023-04-10T06:17:21.868Z,101707.31
2023-04-10T06:19:50.546Z,101705.66
2023-04-10T06:22:19.265Z,101704.84
2023-04-10T06:24:47.749Z,101697.91
2023-04-10T06:27:18.626Z,101700.63
2023-04-10T06:29:48.313Z,101702.47
2023-04-10T06:32:21.334Z,101704.41
2023-04-10T06:34:49.968Z,101651.69
2023-04-10T06:37:18.400Z,101699.56
2023-04-10T06:39:47.712Z,101695.28
2023-04-10T06:42:17.563Z,101698.00
2023-04-10T06:44:57.840Z,101701.56
2023-04-10T06:47:26.284Z,101709.50
2023-04-10T06:49:54.893Z,101676.91
2023-04-10T06:52:23.375Z,101695.41
2023-04-10T06:54:51.797Z,101700.75
2023-04-10T06:57:21.600Z,101698.97
2023-04-10T06:59:50.067Z,101712.13
2023-04-10T07:02:18.594Z,101713.91
2023-04-10T07:04:47.121Z,101684.78
2023-04-10T07:07:16.046Z,101718.13
2023-04-10T07:09:44.898Z,101708.34
2023-04-10T07:12:13.458Z,101704.63
2023-04-10T07:14:43.452Z,101707.22
2023-04-10T07:17:11.920Z,101712.38
2023-04-10T07:19:40.311Z,101714.88
2023-04-10T07:22:08.897Z,101716.47
2023-04-10T07:24:37.420Z,101716.34
2023-04-10T07:27:05.976Z,101721.63
2023-04-10T07:29:34.407Z,101713.59
2023-04-10T07:32:04.303Z,101712.72
2023-04-10T07:34:32.928Z,101658.03
2023-04-10T07:37:01.423Z,101714.13
2023-04-10T07:39:29.847Z,101719.28
2023-04-10T07:41:58.301Z,101718.19
2023-04-10T07:44:28.670Z,101713.38
2023-04-10T07:46:57.142Z,101710.75
2023-04-10T07:49:27.203Z,101717.75
2023-04-10T07:51:55.857Z,101712.41
2023-04-10T07:54:24.312Z,101707.16
2023-04-10T07:56:54.189Z,101709.66
2023-04-10T07:59:22.577Z,101710.25
2023-04-10T08:01:51.037Z,101706.59
2023-04-10T08:04:19.690Z,101707.41
2023-04-10T08:06:50.646Z,101702.75
2023-04-10T08:09:19.088Z,101676.28
2023-04-10T08:12:08.374Z,101708.56
2023-04-10T08:14:36.916Z,101696.75
2023-04-10T08:17:05.569Z,101704.53
2023-04-10T08:19:34.033Z,101701.41
2023-04-10T08:22:03.912Z,101696.78
2023-04-10T08:24:32.342Z,101694.03
2023-04-10T08:27:01.795Z,101692.69
2023-04-10T08:29:30.383Z,101690.75
2023-04-10T08:32:01.499Z,101668.78
2023-04-10T08:34:29.892Z,101667.22
2023-04-10T08:36:58.811Z,101693.38
2023-04-10T08:39:28.904Z,101698.66
2023-04-10T08:41:57.508Z,101700.25
2023-04-10T08:44:25.971Z,101692.81
2023-04-10T08:46:56.705Z,101694.69
2023-04-10T08:49:33.674Z,101679.59
2023-04-10T08:52:07.911Z,101690.25
2023-04-10T08:54:41.608Z,101692.09
2023-04-10T08:57:17.701Z,101687.34
2023-04-10T08:59:46.193Z,101691.38
2023-04-10T09:02:15.029Z,101681.00
2023-04-10T09:04:50.153Z,101674.81
2023-04-10T09:07:19.042Z,101660.63
2023-04-10T09:09:48.812Z,101676.75
2023-04-10T09:12:18.420Z,101679.38
2023-04-10T09:14:48.765Z,101670.25
2023-04-10T09:17:20.004Z,101661.13
2023-04-10T09:19:50.584Z,101662.50
2023-04-10T09:22:19.591Z,101659.28
2023-04-10T09:24:49.424Z,101650.78
2023-04-10T09:27:32.806Z,101659.00
2023-04-10T09:30:01.849Z,101653.78
2023-04-10T09:32:42.883Z,101616.91
2023-04-10T09:35:13.905Z,101620.41
2023-04-10T09:37:45.108Z,101651.22
2023-04-10T09:40:25.955Z,101641.47
2023-04-10T09:42:55.980Z,101646.78
2023-04-10T09:45:27.113Z,101623.00
2023-04-10T09:48:05.041Z,101634.41
2023-04-10T09:50:39.925Z,101605.31
2023-04-10T09:53:09.477Z,101621.03
2023-04-10T09:55:40.106Z,101615.66
2023-04-10T09:58:10.125Z,101612.97
2023-04-10T10:00:42.722Z,101613.00
2023-04-10T10:03:14.613Z,101583.91
2023-04-10T10:05:45.901Z,101608.50
2023-04-10T10:11:03.759Z,101599.53
2023-04-10T10:13:45.661Z,101592.31
2023-04-10T10:16:22.653Z,101564.06
2023-04-10T10:19:02.424Z,101549.88
2023-04-10T10:21:34.128Z,101588.38
2023-04-10T10:24:08.385Z,101583.88
2023-04-10T10:26:41.737Z,101555.72
2023-04-10T10:29:13.413Z,101560.88
2023-04-10T10:31:42.963Z,101575.53
2023-04-10T10:34:11.442Z,101578.09
2023-04-10T10:36:41.805Z,101573.63
2023-04-10T10:39:33.766Z,101567.50
2023-04-10T10:42:15.771Z,101470.88
2023-04-10T10:44:52.236Z,101535.00
2023-04-10T10:47:28.372Z,101556.00
2023-04-10T10:49:59.674Z,101554.97
2023-04-10T10:52:49.794Z,101519.63
2023-04-10T10:55:37.769Z,101545.84
2023-04-10T10:58:09.455Z,101512.56
2023-04-10T11:01:10.279Z,101524.81
2023-04-10T11:03:39.938Z,101531.81
2023-04-10T11:06:12.321Z,101530.78
2023-04-10T11:08:45.808Z,101532.38
2023-04-10T11:11:17.825Z,101500.66
2023-04-10T11:14:20.253Z,101502.25
2023-04-10T11:16:49.421Z,101520.56
2023-04-10T11:19:22.829Z,101516.72
2023-04-10T11:22:08.005Z,101449.94
2023-04-10T11:25:00.536Z,101509.38
2023-04-10T11:27:49.202Z,101510.88
2023-04-10T11:30:33.704Z,101510.84
2023-04-10T11:33:04.153Z,101508.13
2023-04-10T11:35:34.160Z,101501.69
2023-04-10T11:38:17.991Z,101459.16
2023-04-10T11:41:06.864Z,101455.19
2023-04-10T11:43:35.968Z,101410.25
2023-04-10T11:46:08.628Z,101479.38
2023-04-10T11:48:38.572Z,101473.75
2023-04-10T11:51:13.027Z,101458.84
2023-04-10T11:53:42.646Z,101467.50
2023-04-10T11:56:22.533Z,101468.19
2023-04-10T11:58:54.971Z,101464.53
2023-04-10T12:01:25.557Z,101445.72
2023-04-10T12:03:54.259Z,101446.59
2023-04-10T12:06:23.397Z,101438.66
2023-04-10T12:08:52.024Z,101430.75
2023-04-10T12:11:22.478Z,101426.19
2023-04-10T12:13:54.354Z,101425.22
2023-04-10T12:16:26.567Z,101403.94
2023-04-10T12:18:55.950Z,101377.47
2023-04-10T12:21:24.572Z,101416.59
2023-04-10T12:23:53.179Z,101417.34
2023-04-10T12:26:22.396Z,101375.69
2023-04-10T12:28:57.367Z,101415.22
2023-04-10T12:31:32.861Z,101417.09
2023-04-10T12:34:05.673Z,101408.09
2023-04-10T12:36:35.295Z,101404.34
2023-04-10T12:39:06.274Z,101403.66
2023-04-10T12:41:36.185Z,101399.91
2023-04-10T12:44:13.036Z,101404.31
2023-04-10T12:46:44.557Z,101404.22
2023-04-10T12:49:15.673Z,101396.09
2023-04-10T12:51:49.113Z,101396.56
2023-04-10T12:54:37.452Z,101374.69
2023-04-10T12:57:07.188Z,101383.59
2023-04-10T12:59:35.576Z,101376.31
2023-04-10T13:02:05.475Z,101373.59
2023-04-10T13:04:34.078Z,101370.53
2023-04-10T13:07:02.991Z,101371.31
2023-04-10T13:09:31.593Z,101369.19
2023-04-10T13:12:00.046Z,101360.34
2023-04-10T13:14:28.470Z,101315.59
2023-04-10T13:16:56.864Z,101360.09
2023-04-10T13:19:26.730Z,101354.00
2023-04-10T13:21:55.268Z,101343.09
2023-04-10T13:24:23.786Z,101348.41
2023-04-10T13:26:52.314Z,101339.50
2023-04-10T13:29:20.755Z,101330.50
2023-04-10T13:31:50.226Z,101317.25
2023-04-10T13:34:18.713Z,101327.81
2023-04-10T13:36:51.470Z,101323.53
2023-04-10T13:39:20.082Z,101317.09
2023-04-10T13:41:48.465Z,101320.84
2023-04-10T13:44:17.030Z,101309.13
2023-04-10T13:46:45.587Z,101286.38
2023-04-10T13:49:17.137Z,101273.94
2023-04-10T13:51:47.824Z,101286.88
2023-04-10T13:54:17.071Z,101290.34
2023-04-10T13:56:46.523Z,101286.34
2023-04-10T13:59:15.409Z,101269.47
2023-04-10T14:01:43.904Z,101285.19
2023-04-10T14:04:12.401Z,101268.97
2023-04-10T14:06:40.870Z,101269.88
2023-04-10T14:09:10.684Z,101257.56
2023-04-10T14:11:39.192Z,101261.16
2023-04-10T14:14:07.700Z,101257.94
2023-04-10T14:16:36.298Z,101267.25
2023-04-10T14:19:05.067Z,101256.16
2023-04-10T14:21:33.583Z,101234.94
2023-04-10T14:24:01.972Z,101243.81
2023-04-10T14:26:31.957Z,101237.09
2023-04-10T14:29:00.445Z,101233.56
2023-04-10T14:31:29.669Z,101231.84
2023-04-10T14:33:58.226Z,101192.16
2023-04-10T14:36:28.832Z,101217.91
2023-04-10T14:38:57.696Z,101215.00
2023-04-10T14:41:26.527Z,101215.34
2023-04-10T14:43:56.852Z,101206.34
2023-04-10T14:46:26.615Z,101193.25
2023-04-10T14:48:55.936Z,101199.38
2023-04-10T14:51:24.832Z,101202.66
2023-04-10T14:53:53.425Z,101188.72
2023-04-10T14:56:22.045Z,101188.44
2023-04-10T14:59:05.747Z,101181.19
2023-04-10T15:01:36.763Z,101183.00
2023-04-10T15:04:05.779Z,101190.78
2023-04-10T15:06:34.950Z,101165.00
2023-04-10T15:09:05.182Z,101180.75
2023-04-10T15:11:34.516Z,101175.81
2023-04-10T15:14:03.425Z,101164.00
2023-04-10T15:16:32.272Z,101173.81
2023-04-10T15:19:02.696Z,101166.34
2023-04-10T15:21:31.611Z,101163.81
2023-04-10T15:24:01.172Z,101160.50
2023-04-10T15:26:29.695Z,101156.38
2023-04-10T15:28:58.227Z,101151.50
2023-04-10T15:31:26.718Z,101154.38
2023-04-10T15:33:55.427Z,101149.75
2023-04-10T15:36:25.686Z,101138.41
2023-04-10T15:38:54.125Z,101140.63
2023-04-10T15:41:23.002Z,101136.69
2023-04-10T15:43:51.448Z,101120.41
2023-04-10T15:46:19.933Z,101088.59
2023-04-10T15:48:48.425Z,101115.53
2023-04-10T15:51:16.824Z,101109.03
2023-04-10T15:53:46.668Z,101113.78
2023-04-10T15:56:16.148Z,101106.84
2023-04-10T15:58:44.772Z,101103.47
2023-04-10T16:01:13.311Z,101098.56
2023-04-10T16:03:41.878Z,101094.25
2023-04-10T16:06:10.764Z,101088.34
2023-04-10T16:08:39.196Z,101085.72
2023-04-10T16:11:10.717Z,101081.91
2023-04-10T16:13:42.226Z,101080.47
2023-04-10T16:16:16.094Z,101073.25
2023-04-10T16:18:46.505Z,101067.88
2023-04-10T16:21:15.462Z,101038.41
2023-04-10T16:23:44.078Z,101029.63
2023-04-10T16:26:16.545Z,101045.03
2023-04-10T16:28:45.045Z,101063.63
2023-04-10T16:31:13.489Z,101056.19
2023-04-10T16:33:42.840Z,101049.53
2023-04-10T16:36:11.744Z,100987.88
2023-04-10T16:38:40.551Z,101001.03
2023-04-10T16:41:17.011Z,100959.25
2023-04-10T16:43:45.666Z,101035.38
2023-04-10T16:46:16.209Z,101027.63
2023-04-10T16:48:45.422Z,100927.63
2023-04-10T16:51:17.847Z,101030.44
2023-04-10T16:53:46.773Z,101025.22
2023-04-10T16:56:17.350Z,101026.22
2023-04-10T16:58:47.383Z,100979.09
2023-04-10T17:01:18.877Z,100988.69
2023-04-10T17:03:48.697Z,101013.75
2023-04-10T17:06:17.886Z,101003.38
2023-04-10T17:08:46.816Z,101010.13
2023-04-10T17:11:17.239Z,100985.78
2023-04-10T17:13:47.578Z,101012.88
2023-04-10T17:16:16.535Z,101006.94
2023-04-10T17:18:45.410Z,101006.25
2023-04-10T17:21:14.806Z,101008.34
2023-04-10T17:23:43.679Z,101007.06
2023-04-10T17:26:17.015Z,100996.16
2023-04-10T17:28:46.423Z,101005.31
2023-04-10T17:31:16.379Z,100997.81
2023-04-10T17:33:45.217Z,101000.78
2023-04-10T17:36:14.505Z,100993.16
2023-04-10T17:38:43.744Z,100995.22
2023-04-10T17:41:17.154Z,100991.09
2023-04-10T17:43:45.701Z,100993.22
2023-04-10T17:46:15.801Z,100974.19
2023-04-10T17:48:45.533Z,100957.94
2023-04-10T17:51:14.983Z,100990.75
2023-04-10T17:53:43.661Z,100959.53
2023-04-10T17:56:20.809Z,100979.00
2023-04-10T17:58:49.831Z,100933.81
2023-04-10T18:01:27.555Z,100975.13
2023-04-10T18:03:56.485Z,100942.16
2023-04-10T18:06:25.872Z,100972.88
2023-04-10T18:08:54.661Z,100965.88
2023-04-10T18:11:25.422Z,100965.22
2023-04-10T18:13:54.005Z,100955.84
2023-04-10T18:16:22.599Z,100960.28
2023-04-10T18:18:51.115Z,100856.41
2023-04-10T18:21:20.038Z,100954.38
2023-04-10T18:23:48.727Z,100950.19
2023-04-10T18:26:20.715Z,100940.63
2023-04-10T18:28:52.411Z,100947.00
2023-04-10T18:31:21.155Z,100937.38
2023-04-10T18:34:03.793Z,100928.66
2023-04-10T18:36:36.340Z,100932.09
2023-04-10T18:39:05.451Z,100929.53
2023-04-10T18:41:34.403Z,100897.22
2023-04-10T18:44:05.868Z,100917.50
2023-04-10T18:46:38.316Z,100930.69
2023-04-10T18:49:07.715Z,100926.50
2023-04-10T18:51:37.532Z,100924.06
2023-04-10T18:54:07.739Z,100912.75
2023-04-10T18:56:38.253Z,100918.84
2023-04-10T18:59:08.144Z,100908.22
2023-04-10T19:01:36.765Z,100910.91
2023-04-10T19:04:05.794Z,100844.53
2023-04-10T19:06:36.888Z,100903.97
2023-04-10T19:09:05.832Z,100902.34
2023-04-10T19:11:34.391Z,100893.66
2023-04-10T19:14:03.146Z,100896.50
2023-04-10T19:19:07.268Z,100865.16
2023-04-10T19:21:35.801Z,100896.63
2023-04-10T19:24:04.348Z,100893.13
2023-04-10T19:26:33.162Z,100892.34
2023-04-10T19:29:01.627Z,100888.97
2023-04-10T19:31:30.933Z,100885.53
2023-04-10T19:34:30.772Z,100882.88
2023-04-10T19:36:59.798Z,100863.59
2023-04-10T19:39:31.201Z,100843.44
2023-04-10T19:41:59.735Z,100842.59
2023-04-10T19:44:28.697Z,100865.38
2023-04-10T19:46:57.264Z,100865.38
2023-04-10T19:49:29.355Z,100857.53
2023-04-10T19:51:59.387Z,100857.66
2023-04-10T19:54:28.218Z,100848.97
2023-04-10T19:56:57.952Z,100847.31
2023-04-10T19:59:26.793Z,100842.84
2023-04-10T20:01:55.960Z,100841.97
2023-04-10T20:04:24.946Z,100841.97
2023-04-10T20:06:53.783Z,100821.69
2023-04-10T20:09:23.717Z,100823.44
2023-04-10T20:11:52.156Z,100818.13
2023-04-10T20:14:21.837Z,100810.25
2023-04-10T20:16:50.848Z,100809.44
2023-04-10T20:19:19.827Z,100807.69
2023-04-10T20:21:48.519Z,100804.94
2023-04-10T20:24:16.996Z,100810.25
2023-04-10T20:26:46.908Z,100804.09
2023-04-10T20:29:15.596Z,100804.19
2023-04-10T20:31:44.449Z,100807.78
2023-04-10T20:34:13.346Z,100803.41
2023-04-10T20:36:42.142Z,100797.25
2023-04-10T20:39:10.924Z,100796.38
2023-04-10T20:41:39.366Z,100799.00
2023-04-10T20:44:09.233Z,100791.97
2023-04-10T20:46:37.751Z,100753.47
2023-04-10T20:49:06.528Z,100787.56
2023-04-10T20:51:37.262Z,100780.56
2023-04-10T20:54:06.975Z,100782.25
2023-04-10T20:56:42.722Z,100782.19
2023-04-10T20:59:13.370Z,100776.00
2023-04-10T21:01:41.973Z,100764.56
2023-04-10T21:04:10.867Z,100754.06
2023-04-10T21:06:39.517Z,100753.22
2023-04-10T21:09:08.182Z,100744.41
2023-04-10T21:11:36.931Z,100739.16
2023-04-10T21:14:05.638Z,100743.53
2023-04-10T21:16:40.498Z,100745.28
2023-04-10T21:19:09.322Z,100741.69
2023-04-10T21:21:39.145Z,100740.81
2023-04-10T21:24:07.856Z,100736.34
2023-04-10T21:26:36.337Z,100731.94
2023-04-10T21:29:04.847Z,100723.19
2023-04-10T21:31:34.680Z,100693.59
2023-04-10T21:34:03.313Z,100686.75
2023-04-10T21:36:32.642Z,100676.34
2023-04-10T21:39:01.442Z,100720.84
2023-04-10T21:41:29.992Z,100718.31
2023-04-10T21:44:00.384Z,100720.09
2023-04-10T21:46:29.440Z,100718.38
2023-04-10T21:48:59.460Z,100722.88
2023-04-10T21:51:29.135Z,100725.59
2023-04-10T21:53:57.948Z,100719.50
2023-04-10T21:56:26.844Z,100720.41
2023-04-10T21:58:55.967Z,100715.97
2023-04-10T22:01:24.900Z,100716.81
2023-04-10T22:03:54.299Z,100700.03
2023-04-10T22:06:24.241Z,100645.84
2023-04-10T22:08:52.903Z,100682.59
2023-04-10T22:11:21.887Z,100709.59
2023-04-10T22:13:50.693Z,100700.78
2023-04-10T22:16:19.399Z,100705.19
2023-04-10T22:18:48.153Z,100700.84
2023-04-10T22:21:16.590Z,100693.81
2023-04-10T22:23:46.401Z,100690.16
2023-04-10T22:26:15.175Z,100684.81
2023-04-10T22:28:43.887Z,100674.25
2023-04-10T22:31:17.213Z,100674.22
2023-04-10T22:33:46.085Z,100654.00
2023-04-10T22:36:14.833Z,100668.84
2023-04-10T22:38:45.002Z,100667.97
2023-04-10T22:41:13.721Z,100665.34
2023-04-10T22:43:42.256Z,100647.09
2023-04-10T22:46:13.128Z,100639.19
2023-04-10T22:48:41.843Z,100513.47
2023-04-10T22:51:12.188Z,100645.19
2023-04-10T22:53:41.260Z,100639.94
2023-04-10T22:56:12.470Z,100562.38
2023-04-10T22:58:41.911Z,100633.09
2023-04-10T23:01:11.860Z,100629.72
2023-04-10T23:03:40.643Z,100616.53
2023-04-10T23:06:10.305Z,100613.09
2023-04-10T23:08:39.084Z,100599.19
2023-04-10T23:11:08.295Z,100596.72
2023-04-10T23:13:38.137Z,100588.06
2023-04-10T23:16:07.582Z,100577.53
2023-04-10T23:18:37.505Z,100581.94
2023-04-10T23:21:07.769Z,100574.03
2023-04-10T23:23:36.537Z,100567.97
2023-04-10T23:26:05.083Z,100574.16
2023-04-10T23:28:33.508Z,100560.94
2023-04-10T23:31:03.328Z,100532.91
2023-04-10T23:33:32.029Z,100550.34
2023-04-10T23:36:00.782Z,100541.59
2023-04-10T23:38:29.542Z,100534.56
2023-04-10T23:40:58.316Z,100527.63
2023-04-10T23:43:27.110Z,100525.88
2023-04-10T23:45:55.852Z,100518.84
2023-04-10T23:48:25.999Z,100428.97
2023-04-10T23:51:05.353Z,100476.91
2023-04-10T23:53:34.247Z,100495.91
2023-04-10T23:56:03.315Z,100498.47
2023-04-10T23:58:31.768Z,100487.88
